sensor_id;sensor_type;location;lat;lon;timestamp;pressure;altitude;pressure_sealevel;temperature;humidity
34145;BME280;20422;53.014;8.886;2022-08-06T00:00:37;102297.44;;;12.33;100.00
34145;BME280;20422;53.014;8.886;2022-08-06T00:03:02;102283.06;;;12.15;100.00
34145;BME280;20422;53.014;8.886;2022-08-06T00:05:28;102319.72;;;12.35;100.00
34145;BME280;20422;53.014;8.886;2022-08-06T00:07:53;102336.44;;;12.42;100.00
34145;BME280;20422;53.014;8.886;2022-08-06T00:10:22;102336.91;;;12.50;100.00
34145;BME280;20422;53.014;8.886;2022-08-06T00:12:48;102293.41;;;12.05;100.00
34145;BME280;20422;53.014;8.886;2022-08-06T00:15:13;102343.50;;;12.25;100.00
34145;BME280;20422;53.014;8.886;2022-08-06T00:17:38;102292.09;;;11.95;100.00
34145;BME280;20422;53.014;8.886;2022-08-06T00:20:05;102356.94;;;12.25;100.00
34145;BME280;20422;53.014;8.886;2022-08-06T00:22:31;102320.78;;;12.14;100.00
34145;BME280;20422;53.014;8.886;2022-08-06T00:24:57;102350.41;;;12.31;100.00
34145;BME280;20422;53.014;8.886;2022-08-06T00:27:22;102356.94;;;12.25;100.00
34145;BME280;20422;53.014;8.886;2022-08-06T00:29:48;102303.31;;;11.86;100.00
34145;BME280;20422;53.014;8.886;2022-08-06T00:32:14;102257.00;;;11.61;100.00
34145;BME280;20422;53.014;8.886;2022-08-06T00:34:40;102317.53;;;11.88;100.00
34145;BME280;20422;53.014;8.886;2022-08-06T00:37:05;102251.78;;;11.39;100.00
34145;BME280;20422;53.014;8.886;2022-08-06T00:39:30;102331.91;;;11.87;100.00
34145;BME280;20422;53.014;8.886;2022-08-06T00:41:56;102319.75;;;11.78;100.00
34145;BME280;20422;53.014;8.886;2022-08-06T00:44:21;102364.72;;;11.94;100.00
34145;BME280;20422;53.014;8.886;2022-08-06T00:46:47;102312.03;;;11.52;100.00
34145;BME280;20422;53.014;8.886;2022-08-06T00:49:14;102319.00;;;11.56;100.00
34145;BME280;20422;53.014;8.886;2022-08-06T00:51:40;102288.03;;;11.47;100.00
34145;BME280;20422;53.014;8.886;2022-08-06T00:54:05;102343.63;;;11.85;100.00
34145;BME280;20422;53.014;8.886;2022-08-06T00:56:31;102379.16;;;11.91;100.00
34145;BME280;20422;53.014;8.886;2022-08-06T00:58:56;102304.59;;;11.38;100.00
34145;BME280;20422;53.014;8.886;2022-08-06T01:01:21;102294.06;;;11.34;100.00
34145;BME280;20422;53.014;8.886;2022-08-06T01:06:56;102346.41;;;11.63;100.00
34145;BME280;20422;53.014;8.886;2022-08-06T01:09:21;102330.13;;;11.67;100.00
34145;BME280;20422;53.014;8.886;2022-08-06T01:11:46;102353.41;;;11.87;100.00
34145;BME280;20422;53.014;8.886;2022-08-06T01:14:12;102355.22;;;11.87;100.00
34145;BME280;20422;53.014;8.886;2022-08-06T01:16:49;102389.63;;;11.97;100.00
34145;BME280;20422;53.014;8.886;2022-08-06T01:22:21;102405.56;;;11.82;100.00
34145;BME280;20422;53.014;8.886;2022-08-06T01:25:13;102407.84;;;11.91;100.00
34145;BME280;20422;53.014;8.886;2022-08-06T01:27:46;102365.06;;;11.66;100.00
34145;BME280;20422;53.014;8.886;2022-08-06T01:30:17;102394.13;;;11.76;100.00
34145;BME280;20422;53.014;8.886;2022-08-06T01:32:48;102364.13;;;11.67;100.00
34145;BME280;20422;53.014;8.886;2022-08-06T01:35:22;102393.69;;;11.87;100.00
34145;BME280;20422;53.014;8.886;2022-08-06T01:37:58;102413.38;;;11.88;100.00
34145;BME280;20422;53.014;8.886;2022-08-06T01:40:31;102403.94;;;11.77;100.00
34145;BME280;20422;53.014;8.886;2022-08-06T01:43:00;102397.97;;;11.71;100.00
34145;BME280;20422;53.014;8.886;2022-08-06T01:45:31;102410.13;;;11.59;100.00
34145;BME280;20422;53.014;8.886;2022-08-06T01:48:01;102399.94;;;11.47;100.00
34145;BME280;20422;53.014;8.886;2022-08-06T01:50:33;102374.09;;;11.24;100.00
34145;BME280;20422;53.014;8.886;2022-08-06T01:53:02;102403.09;;;11.36;100.00
34145;BME280;20422;53.014;8.886;2022-08-06T01:55:31;102412.38;;;11.49;100.00
34145;BME280;20422;53.014;8.886;2022-08-06T01:57:59;102416.47;;;11.38;100.00
34145;BME280;20422;53.014;8.886;2022-08-06T02:00:29;102399.75;;;11.31;100.00
34145;BME280;20422;53.014;8.886;2022-08-06T02:02:59;102410.44;;;11.33;100.00
34145;BME280;20422;53.014;8.886;2022-08-06T02:05:31;102393.97;;;11.20;100.00
34145;BME280;20422;53.014;8.886;2022-08-06T02:08:00;102410.59;;;11.28;100.00
34145;BME280;20422;53.014;8.886;2022-08-06T02:10:28;102415.31;;;11.23;100.00
34145;BME280;20422;53.014;8.886;2022-08-06T02:12:57;102414.34;;;11.24;100.00
34145;BME280;20422;53.014;8.886;2022-08-06T02:15:27;102402.63;;;11.27;100.00
34145;BME280;20422;53.014;8.886;2022-08-06T02:17:58;102406.03;;;11.30;100.00
34145;BME280;20422;53.014;8.886;2022-08-06T02:20:33;102408.41;;;11.17;100.00
34145;BME280;20422;53.014;8.886;2022-08-06T02:23:01;102414.69;;;11.16;100.00
34145;BME280;20422;53.014;8.886;2022-08-06T02:25:28;102403.34;;;11.10;100.00
34145;BME280;20422;53.014;8.886;2022-08-06T02:27:56;102423.94;;;11.30;100.00
34145;BME280;20422;53.014;8.886;2022-08-06T02:30:23;102396.84;;;11.15;100.00
34145;BME280;20422;53.014;8.886;2022-08-06T02:32:50;102430.97;;;11.12;100.00
34145;BME280;20422;53.014;8.886;2022-08-06T02:35:15;102389.69;;;10.94;100.00
34145;BME280;20422;53.014;8.886;2022-08-06T02:37:49;102429.28;;;11.09;100.00
34145;BME280;20422;53.014;8.886;2022-08-06T02:40:28;102432.31;;;11.02;100.00
34145;BME280;20422;53.014;8.886;2022-08-06T02:43:22;102410.34;;;10.92;100.00
34145;BME280;20422;53.014;8.886;2022-08-06T02:46:10;102435.66;;;11.07;100.00
34145;BME280;20422;53.014;8.886;2022-08-06T02:48:58;102422.81;;;10.93;100.00
34145;BME280;20422;53.014;8.886;2022-08-06T02:51:32;102440.63;;;10.96;100.00
34145;BME280;20422;53.014;8.886;2022-08-06T02:54:15;102427.94;;;10.99;100.00
34145;BME280;20422;53.014;8.886;2022-08-06T02:56:44;102427.09;;;10.99;100.00
34145;BME280;20422;53.014;8.886;2022-08-06T02:59:13;102437.41;;;11.08;100.00
34145;BME280;20422;53.014;8.886;2022-08-06T03:01:45;102435.28;;;10.94;100.00
34145;BME280;20422;53.014;8.886;2022-08-06T03:04:14;102403.94;;;10.96;100.00
34145;BME280;20422;53.014;8.886;2022-08-06T03:06:42;102444.53;;;11.09;100.00
34145;BME280;20422;53.014;8.886;2022-08-06T03:09:11;102413.84;;;10.94;100.00
34145;BME280;20422;53.014;8.886;2022-08-06T03:11:38;102420.28;;;10.90;100.00
34145;BME280;20422;53.014;8.886;2022-08-06T03:14:07;102433.56;;;10.93;100.00
34145;BME280;20422;53.014;8.886;2022-08-06T03:16:35;102438.81;;;10.96;100.00
34145;BME280;20422;53.014;8.886;2022-08-06T03:19:02;102435.38;;;10.93;100.00
34145;BME280;20422;53.014;8.886;2022-08-06T03:21:29;102435.94;;;11.01;100.00
34145;BME280;20422;53.014;8.886;2022-08-06T03:23:57;102422.53;;;10.79;100.00
34145;BME280;20422;53.014;8.886;2022-08-06T03:26:27;102447.50;;;10.81;100.00
34145;BME280;20422;53.014;8.886;2022-08-06T03:28:55;102443.88;;;10.82;100.00
34145;BME280;20422;53.014;8.886;2022-08-06T03:31:22;102453.34;;;10.90;100.00
34145;BME280;20422;53.014;8.886;2022-08-06T03:33:49;102441.19;;;10.82;100.00
34145;BME280;20422;53.014;8.886;2022-08-06T03:36:16;102404.00;;;10.51;100.00
34145;BME280;20422;53.014;8.886;2022-08-06T03:38:54;102448.44;;;10.80;100.00
34145;BME280;20422;53.014;8.886;2022-08-06T03:41:20;102453.47;;;10.66;100.00
34145;BME280;20422;53.014;8.886;2022-08-06T03:43:46;102457.31;;;10.58;100.00
34145;BME280;20422;53.014;8.886;2022-08-06T03:46:13;102451.13;;;10.56;100.00
34145;BME280;20422;53.014;8.886;2022-08-06T03:48:42;102474.78;;;10.69;100.00
34145;BME280;20422;53.014;8.886;2022-08-06T03:51:15;102471.44;;;10.64;100.00
34145;BME280;20422;53.014;8.886;2022-08-06T03:53:42;102477.16;;;10.76;100.00
34145;BME280;20422;53.014;8.886;2022-08-06T03:56:14;102456.81;;;10.49;100.00
34145;BME280;20422;53.014;8.886;2022-08-06T03:58:41;102475.84;;;10.65;100.00
34145;BME280;20422;53.014;8.886;2022-08-06T04:01:12;102490.75;;;10.72;100.00
34145;BME280;20422;53.014;8.886;2022-08-06T04:03:38;102476.91;;;10.61;100.00
34145;BME280;20422;53.014;8.886;2022-08-06T04:06:05;102459.44;;;10.50;100.00
34145;BME280;20422;53.014;8.886;2022-08-06T04:08:34;102492.56;;;10.71;100.00
34145;BME280;20422;53.014;8.886;2022-08-06T04:11:01;102497.66;;;10.55;100.00
34145;BME280;20422;53.014;8.886;2022-08-06T04:13:27;102489.53;;;10.57;100.00
34145;BME280;20422;53.014;8.886;2022-08-06T04:15:54;102492.63;;;10.70;100.00
34145;BME280;20422;53.014;8.886;2022-08-06T04:18:23;102490.94;;;10.67;100.00
34145;BME280;20422;53.014;8.886;2022-08-06T04:20:54;102497.25;;;10.88;100.00
34145;BME280;20422;53.014;8.886;2022-08-06T04:23:19;102518.22;;;10.78;100.00
34145;BME280;20422;53.014;8.886;2022-08-06T04:25:48;102510.84;;;10.83;100.00
34145;BME280;20422;53.014;8.886;2022-08-06T04:28:15;102477.84;;;10.59;100.00
34145;BME280;20422;53.014;8.886;2022-08-06T04:30:42;102478.03;;;10.77;100.00
34145;BME280;20422;53.014;8.886;2022-08-06T04:33:11;102519.53;;;11.34;100.00
34145;BME280;20422;53.014;8.886;2022-08-06T04:35:39;102526.09;;;12.49;100.00
34145;BME280;20422;53.014;8.886;2022-08-06T04:38:06;102527.72;;;13.63;100.00
34145;BME280;20422;53.014;8.886;2022-08-06T04:40:31;102524.88;;;14.66;97.89
34145;BME280;20422;53.014;8.886;2022-08-06T04:42:57;102524.22;;;15.86;91.72
34145;BME280;20422;53.014;8.886;2022-08-06T04:45:24;102531.13;;;16.48;87.29
34145;BME280;20422;53.014;8.886;2022-08-06T04:47:50;102530.66;;;17.26;83.48
34145;BME280;20422;53.014;8.886;2022-08-06T04:50:15;102526.16;;;17.78;80.80
34145;BME280;20422;53.014;8.886;2022-08-06T04:52:41;102537.69;;;18.07;78.97
34145;BME280;20422;53.014;8.886;2022-08-06T04:55:07;102530.28;;;18.86;77.26
34145;BME280;20422;53.014;8.886;2022-08-06T04:57:32;102528.84;;;19.17;74.62
34145;BME280;20422;53.014;8.886;2022-08-06T04:59:58;102510.16;;;19.36;73.51
34145;BME280;20422;53.014;8.886;2022-08-06T05:02:23;102549.22;;;19.83;72.37
34145;BME280;20422;53.014;8.886;2022-08-06T05:04:49;102525.78;;;20.27;71.21
34145;BME280;20422;53.014;8.886;2022-08-06T05:07:23;102555.06;;;20.58;69.55
34145;BME280;20422;53.014;8.886;2022-08-06T05:09:50;102554.91;;;20.82;69.65
34145;BME280;20422;53.014;8.886;2022-08-06T05:15:26;102558.16;;;21.53;67.18
34145;BME280;20422;53.014;8.886;2022-08-06T05:17:56;102531.81;;;21.63;66.31
34145;BME280;20422;53.014;8.886;2022-08-06T05:20:22;102553.25;;;21.88;66.80
34145;BME280;20422;53.014;8.886;2022-08-06T05:22:52;102541.53;;;22.09;64.39
34145;BME280;20422;53.014;8.886;2022-08-06T05:25:19;102540.00;;;22.16;65.06
34145;BME280;20422;53.014;8.886;2022-08-06T05:27:45;102552.16;;;21.91;65.17
34145;BME280;20422;53.014;8.886;2022-08-06T05:30:11;102556.09;;;22.19;64.99
34145;BME280;20422;53.014;8.886;2022-08-06T05:32:41;102563.28;;;22.41;64.13
34145;BME280;20422;53.014;8.886;2022-08-06T05:35:07;102561.06;;;22.86;62.93
34145;BME280;20422;53.014;8.886;2022-08-06T05:37:32;102563.03;;;23.24;62.96
34145;BME280;20422;53.014;8.886;2022-08-06T05:39:58;102568.41;;;23.45;62.22
34145;BME280;20422;53.014;8.886;2022-08-06T05:42:23;102558.66;;;23.62;61.01
34145;BME280;20422;53.014;8.886;2022-08-06T05:44:48;102539.63;;;23.89;59.75
34145;BME280;20422;53.014;8.886;2022-08-06T05:47:19;102559.38;;;23.93;60.37
34145;BME280;20422;53.014;8.886;2022-08-06T05:49:48;102540.06;;;23.65;61.37
34145;BME280;20422;53.014;8.886;2022-08-06T05:52:21;102570.84;;;24.35;59.55
34145;BME280;20422;53.014;8.886;2022-08-06T05:54:52;102559.34;;;24.02;59.66
34145;BME280;20422;53.014;8.886;2022-08-06T05:57:33;102569.63;;;24.57;58.90
34145;BME280;20422;53.014;8.886;2022-08-06T06:00:05;102579.47;;;24.87;57.90
34145;BME280;20422;53.014;8.886;2022-08-06T06:02:38;102580.94;;;24.81;58.11
34145;BME280;20422;53.014;8.886;2022-08-06T06:05:05;102576.56;;;25.97;56.28
34145;BME280;20422;53.014;8.886;2022-08-06T06:07:32;102578.56;;;25.86;55.45
34145;BME280;20422;53.014;8.886;2022-08-06T06:09:57;102570.34;;;26.12;55.95
34145;BME280;20422;53.014;8.886;2022-08-06T06:12:23;102587.13;;;26.53;54.89
34145;BME280;20422;53.014;8.886;2022-08-06T06:14:50;102582.69;;;26.34;54.80
34145;BME280;20422;53.014;8.886;2022-08-06T06:22:55;102577.19;;;27.28;53.58
34145;BME280;20422;53.014;8.886;2022-08-06T06:25:35;102581.44;;;27.81;52.29
34145;BME280;20422;53.014;8.886;2022-08-06T06:30:52;102587.63;;;27.75;52.49
34145;BME280;20422;53.014;8.886;2022-08-06T06:33:27;102585.31;;;27.30;53.48
34145;BME280;20422;53.014;8.886;2022-08-06T06:35:57;102586.78;;;27.91;52.78
34145;BME280;20422;53.014;8.886;2022-08-06T06:41:16;102589.03;;;28.12;52.68
34145;BME280;20422;53.014;8.886;2022-08-06T06:43:49;102591.38;;;27.50;52.50
34145;BME280;20422;53.014;8.886;2022-08-06T06:46:32;102595.97;;;27.33;52.74
34145;BME280;20422;53.014;8.886;2022-08-06T06:49:03;102579.19;;;28.17;51.83
34145;BME280;20422;53.014;8.886;2022-08-06T06:51:43;102587.94;;;29.48;49.79
34145;BME280;20422;53.014;8.886;2022-08-06T06:54:17;102592.00;;;29.60;48.52
34145;BME280;20422;53.014;8.886;2022-08-06T06:56:46;102593.75;;;28.91;50.15
34145;BME280;20422;53.014;8.886;2022-08-06T06:59:18;102598.75;;;28.79;49.89
34145;BME280;20422;53.014;8.886;2022-08-06T07:01:46;102580.03;;;28.58;49.50
34145;BME280;20422;53.014;8.886;2022-08-06T07:04:14;102599.53;;;29.04;49.59
34145;BME280;20422;53.014;8.886;2022-08-06T07:06:41;102574.09;;;28.78;49.35
34145;BME280;20422;53.014;8.886;2022-08-06T07:09:14;102600.56;;;29.11;50.55
34145;BME280;20422;53.014;8.886;2022-08-06T07:11:44;102582.59;;;29.15;49.71
34145;BME280;20422;53.014;8.886;2022-08-06T07:14:10;102582.91;;;29.74;49.12
34145;BME280;20422;53.014;8.886;2022-08-06T07:16:36;102612.28;;;29.75;48.32
34145;BME280;20422;53.014;8.886;2022-08-06T07:19:06;102589.28;;;29.98;48.67
34145;BME280;20422;53.014;8.886;2022-08-06T07:21:33;102598.06;;;30.77;47.11
34145;BME280;20422;53.014;8.886;2022-08-06T07:23:59;102593.47;;;29.94;48.01
34145;BME280;20422;53.014;8.886;2022-08-06T07:26:26;102605.00;;;29.97;48.45
34145;BME280;20422;53.014;8.886;2022-08-06T07:28:54;102607.78;;;29.97;48.07
34145;BME280;20422;53.014;8.886;2022-08-06T07:31:23;102610.91;;;29.94;48.43
34145;BME280;20422;53.014;8.886;2022-08-06T07:33:49;102613.22;;;30.66;47.82
34145;BME280;20422;53.014;8.886;2022-08-06T07:36:16;102611.97;;;29.93;48.13
34145;BME280;20422;53.014;8.886;2022-08-06T07:38:44;102616.72;;;30.07;48.70
34145;BME280;20422;53.014;8.886;2022-08-06T07:41:11;102585.53;;;29.14;49.40
34145;BME280;20422;53.014;8.886;2022-08-06T07:43:51;102613.84;;;29.39;49.27
34145;BME280;20422;53.014;8.886;2022-08-06T07:46:24;102606.38;;;29.78;49.50
34145;BME280;20422;53.014;8.886;2022-08-06T07:48:55;102616.94;;;29.44;47.77
34145;BME280;20422;53.014;8.886;2022-08-06T07:51:25;102608.22;;;28.93;48.60
34145;BME280;20422;53.014;8.886;2022-08-06T07:53:52;102596.91;;;28.64;48.65
34145;BME280;20422;53.014;8.886;2022-08-06T07:56:19;102593.28;;;28.63;47.33
34145;BME280;20422;53.014;8.886;2022-08-06T07:58:47;102608.19;;;29.01;47.61
34145;BME280;20422;53.014;8.886;2022-08-06T08:01:14;102581.47;;;28.85;48.40
34145;BME280;20422;53.014;8.886;2022-08-06T08:03:40;102612.78;;;28.45;48.40
34145;BME280;20422;53.014;8.886;2022-08-06T08:06:26;102616.91;;;28.49;49.83
34145;BME280;20422;53.014;8.886;2022-08-06T08:08:56;102614.00;;;28.35;49.12
34145;BME280;20422;53.014;8.886;2022-08-06T08:11:25;102615.19;;;28.16;50.14
34145;BME280;20422;53.014;8.886;2022-08-06T08:13:54;102629.88;;;25.41;52.33
34145;BME280;20422;53.014;8.886;2022-08-06T08:16:21;102638.50;;;25.46;54.44
34145;BME280;20422;53.014;8.886;2022-08-06T08:18:47;102643.91;;;26.36;53.31
34145;BME280;20422;53.014;8.886;2022-08-06T08:21:13;102630.94;;;24.65;55.09
34145;BME280;20422;53.014;8.886;2022-08-06T08:23:40;102636.19;;;25.23;55.58
34145;BME280;20422;53.014;8.886;2022-08-06T08:26:06;102645.53;;;24.18;56.26
34145;BME280;20422;53.014;8.886;2022-08-06T08:28:32;102618.00;;;24.48;55.98
34145;BME280;20422;53.014;8.886;2022-08-06T08:30:57;102622.56;;;24.94;55.55
34145;BME280;20422;53.014;8.886;2022-08-06T08:33:24;102639.56;;;25.17;54.76
34145;BME280;20422;53.014;8.886;2022-08-06T08:35:50;102638.31;;;24.92;55.82
34145;BME280;20422;53.014;8.886;2022-08-06T08:38:16;102618.91;;;25.13;55.33
34145;BME280;20422;53.014;8.886;2022-08-06T08:40:43;102638.31;;;24.92;55.41
34145;BME280;20422;53.014;8.886;2022-08-06T08:43:11;102640.56;;;25.16;55.19
34145;BME280;20422;53.014;8.886;2022-08-06T08:45:39;102584.13;;;25.14;56.01
34145;BME280;20422;53.014;8.886;2022-08-06T08:48:05;102597.47;;;24.89;55.45
34145;BME280;20422;53.014;8.886;2022-08-06T08:50:33;102596.50;;;23.37;57.81
34145;BME280;20422;53.014;8.886;2022-08-06T08:53:07;102636.19;;;23.22;59.15
34145;BME280;20422;53.014;8.886;2022-08-06T08:55:33;102642.78;;;23.60;58.61
34145;BME280;20422;53.014;8.886;2022-08-06T08:58:00;102636.47;;;23.98;58.51
34145;BME280;20422;53.014;8.886;2022-08-06T09:00:26;102617.47;;;24.06;57.81
34145;BME280;20422;53.014;8.886;2022-08-06T09:02:52;102628.09;;;24.38;57.01
34145;BME280;20422;53.014;8.886;2022-08-06T09:05:17;102616.56;;;24.25;56.59
34145;BME280;20422;53.014;8.886;2022-08-06T09:07:43;102608.19;;;24.17;56.54
34145;BME280;20422;53.014;8.886;2022-08-06T09:10:10;102648.72;;;24.13;58.01
34145;BME280;20422;53.014;8.886;2022-08-06T09:12:35;102639.63;;;24.98;57.32
34145;BME280;20422;53.014;8.886;2022-08-06T09:15:02;102633.66;;;24.65;54.16
34145;BME280;20422;53.014;8.886;2022-08-06T09:17:29;102618.44;;;24.15;55.28
34145;BME280;20422;53.014;8.886;2022-08-06T09:19:54;102637.31;;;24.47;56.29
34145;BME280;20422;53.014;8.886;2022-08-06T09:22:20;102633.88;;;24.06;58.28
34145;BME280;20422;53.014;8.886;2022-08-06T09:24:45;102642.81;;;24.47;57.32
34145;BME280;20422;53.014;8.886;2022-08-06T09:27:12;102651.84;;;23.60;56.34
34145;BME280;20422;53.014;8.886;2022-08-06T09:29:50;102646.13;;;23.33;57.90
34145;BME280;20422;53.014;8.886;2022-08-06T09:32:38;102649.03;;;23.91;58.70
34145;BME280;20422;53.014;8.886;2022-08-06T09:37:59;102658.50;;;23.77;59.22
34145;BME280;20422;53.014;8.886;2022-08-06T09:40:25;102662.81;;;23.20;58.66
34145;BME280;20422;53.014;8.886;2022-08-06T09:42:50;102612.44;;;23.32;58.22
34145;BME280;20422;53.014;8.886;2022-08-06T09:45:18;102664.72;;;24.27;56.84
34145;BME280;20422;53.014;8.886;2022-08-06T09:47:45;102656.75;;;23.57;57.24
34145;BME280;20422;53.014;8.886;2022-08-06T09:50:11;102653.88;;;23.68;58.82
34145;BME280;20422;53.014;8.886;2022-08-06T09:52:36;102627.97;;;23.81;55.05
34145;BME280;20422;53.014;8.886;2022-08-06T09:55:02;102665.44;;;24.10;57.59
34145;BME280;20422;53.014;8.886;2022-08-06T09:57:43;102625.34;;;24.38;58.36
34145;BME280;20422;53.014;8.886;2022-08-06T10:00:10;102663.00;;;24.46;56.96
34145;BME280;20422;53.014;8.886;2022-08-06T10:02:37;102653.72;;;24.56;56.57
34145;BME280;20422;53.014;8.886;2022-08-06T10:05:11;102664.44;;;24.40;54.55
34145;BME280;20422;53.014;8.886;2022-08-06T10:07:37;102667.88;;;24.61;54.91
34145;BME280;20422;53.014;8.886;2022-08-06T10:10:04;102651.75;;;24.49;54.10
34145;BME280;20422;53.014;8.886;2022-08-06T10:12:30;102662.34;;;24.81;55.80
34145;BME280;20422;53.014;8.886;2022-08-06T10:14:58;102654.22;;;24.89;55.34
34145;BME280;20422;53.014;8.886;2022-08-06T10:17:24;102668.66;;;25.00;55.28
34145;BME280;20422;53.014;8.886;2022-08-06T10:20:09;102639.91;;;23.80;56.08
34145;BME280;20422;53.014;8.886;2022-08-06T10:22:50;102664.69;;;22.89;57.24
34145;BME280;20422;53.014;8.886;2022-08-06T10:25:16;102675.63;;;22.89;58.28
34145;BME280;20422;53.014;8.886;2022-08-06T10:27:43;102680.00;;;22.59;56.35
34145;BME280;20422;53.014;8.886;2022-08-06T10:30:09;102674.94;;;22.34;56.08
34145;BME280;20422;53.014;8.886;2022-08-06T10:33:02;102670.47;;;22.12;56.17
34145;BME280;20422;53.014;8.886;2022-08-06T10:35:30;102648.81;;;21.88;57.12
34145;BME280;20422;53.014;8.886;2022-08-06T10:38:00;102663.03;;;22.56;57.39
34145;BME280;20422;53.014;8.886;2022-08-06T10:40:29;102662.97;;;22.67;57.84
34145;BME280;20422;53.014;8.886;2022-08-06T10:42:55;102652.56;;;22.40;56.99
34145;BME280;20422;53.014;8.886;2022-08-06T10:45:21;102666.81;;;22.23;59.01
34145;BME280;20422;53.014;8.886;2022-08-06T10:47:47;102667.38;;;21.74;60.58
34145;BME280;20422;53.014;8.886;2022-08-06T10:50:13;102629.50;;;21.37;60.77
34145;BME280;20422;53.014;8.886;2022-08-06T10:52:40;102628.75;;;21.35;62.35
34145;BME280;20422;53.014;8.886;2022-08-06T10:55:07;102641.50;;;21.34;62.62
34145;BME280;20422;53.014;8.886;2022-08-06T10:57:34;102657.88;;;21.12;63.39
34145;BME280;20422;53.014;8.886;2022-08-06T11:00:00;102656.88;;;21.13;63.33
34145;BME280;20422;53.014;8.886;2022-08-06T11:02:51;102656.97;;;21.99;62.18
34145;BME280;20422;53.014;8.886;2022-08-06T11:05:22;102637.91;;;22.41;61.62
34145;BME280;20422;53.014;8.886;2022-08-06T11:13:29;102636.50;;;23.88;57.29
34145;BME280;20422;53.014;8.886;2022-08-06T11:15:57;102588.84;;;23.50;58.37
34145;BME280;20422;53.014;8.886;2022-08-06T11:18:24;102640.78;;;24.00;56.89
34145;BME280;20422;53.014;8.886;2022-08-06T11:20:51;102604.63;;;23.77;56.50
34145;BME280;20422;53.014;8.886;2022-08-06T11:23:23;102637.63;;;24.34;56.41
34145;BME280;20422;53.014;8.886;2022-08-06T11:25:56;102591.03;;;24.05;54.57
34145;BME280;20422;53.014;8.886;2022-08-06T11:31:01;102601.59;;;24.09;55.19
34145;BME280;20422;53.014;8.886;2022-08-06T11:36:04;102597.66;;;24.22;56.19
34145;BME280;20422;53.014;8.886;2022-08-06T11:41:20;102620.84;;;24.56;52.82
34145;BME280;20422;53.014;8.886;2022-08-06T11:59:34;102620.63;;;23.72;56.34
34145;BME280;20422;53.014;8.886;2022-08-06T12:02:08;102619.91;;;24.09;55.02
34145;BME280;20422;53.014;8.886;2022-08-06T12:04:40;102622.63;;;23.99;54.66
34145;BME280;20422;53.014;8.886;2022-08-06T12:07:29;102601.16;;;23.16;54.11
34145;BME280;20422;53.014;8.886;2022-08-06T12:10:12;102631.47;;;22.94;54.88
34145;BME280;20422;53.014;8.886;2022-08-06T12:12:46;102617.41;;;22.98;55.37
34145;BME280;20422;53.014;8.886;2022-08-06T12:20:43;102617.88;;;24.01;53.30
34145;BME280;20422;53.014;8.886;2022-08-06T12:23:11;102608.50;;;23.85;53.68
34145;BME280;20422;53.014;8.886;2022-08-06T12:25:45;102617.72;;;24.03;54.71
34145;BME280;20422;53.014;8.886;2022-08-06T12:28:17;102615.28;;;24.76;53.40
34145;BME280;20422;53.014;8.886;2022-08-06T12:30:49;102596.47;;;24.90;52.02
34145;BME280;20422;53.014;8.886;2022-08-06T12:33:17;102610.88;;;25.29;53.59
34145;BME280;20422;53.014;8.886;2022-08-06T12:35:57;102597.34;;;24.54;52.55
34145;BME280;20422;53.014;8.886;2022-08-06T12:38:26;102620.78;;;23.71;56.38
34145;BME280;20422;53.014;8.886;2022-08-06T12:41:30;102626.00;;;23.43;57.28
34145;BME280;20422;53.014;8.886;2022-08-06T12:43:47;102628.00;;;22.71;57.66
34145;BME280;20422;53.014;8.886;2022-08-06T12:46:13;102571.03;;;22.15;58.76
34145;BME280;20422;53.014;8.886;2022-08-06T12:48:46;102612.28;;;22.00;60.03
34145;BME280;20422;53.014;8.886;2022-08-06T12:51:12;102625.44;;;21.75;60.41
34145;BME280;20422;53.014;8.886;2022-08-06T12:56:22;102626.13;;;21.56;61.83
34145;BME280;20422;53.014;8.886;2022-08-06T12:58:49;102626.78;;;21.69;61.03
34145;BME280;20422;53.014;8.886;2022-08-06T13:01:24;102631.03;;;21.62;61.47
34145;BME280;20422;53.014;8.886;2022-08-06T13:03:53;102608.91;;;21.22;60.95
34145;BME280;20422;53.014;8.886;2022-08-06T13:06:23;102610.25;;;21.50;62.16
34145;BME280;20422;53.014;8.886;2022-08-06T13:08:51;102614.66;;;21.73;63.28
34145;BME280;20422;53.014;8.886;2022-08-06T13:11:18;102626.31;;;21.75;62.18
34145;BME280;20422;53.014;8.886;2022-08-06T13:13:51;102623.94;;;22.02;62.65
34145;BME280;20422;53.014;8.886;2022-08-06T13:16:21;102622.47;;;22.10;61.68
34145;BME280;20422;53.014;8.886;2022-08-06T13:19:08;102628.72;;;22.21;62.64
34145;BME280;20422;53.014;8.886;2022-08-06T13:21:34;102607.94;;;22.09;61.98
34145;BME280;20422;53.014;8.886;2022-08-06T13:24:03;102606.19;;;22.08;61.67
34145;BME280;20422;53.014;8.886;2022-08-06T13:26:32;102623.47;;;21.97;62.36
34145;BME280;20422;53.014;8.886;2022-08-06T13:29:18;102608.41;;;21.71;62.62
34145;BME280;20422;53.014;8.886;2022-08-06T13:31:58;102621.72;;;21.76;62.65
34145;BME280;20422;53.014;8.886;2022-08-06T13:34:27;102619.28;;;21.61;62.61
34145;BME280;20422;53.014;8.886;2022-08-06T13:36:56;102626.16;;;21.77;64.20
34145;BME280;20422;53.014;8.886;2022-08-06T13:39:33;102620.78;;;21.86;62.20
34145;BME280;20422;53.014;8.886;2022-08-06T13:42:08;102626.75;;;21.80;62.03
34145;BME280;20422;53.014;8.886;2022-08-06T13:44:42;102591.22;;;21.27;61.45
34145;BME280;20422;53.014;8.886;2022-08-06T13:47:09;102623.00;;;21.60;62.58
34145;BME280;20422;53.014;8.886;2022-08-06T13:49:39;102605.16;;;21.56;64.77
34145;BME280;20422;53.014;8.886;2022-08-06T13:52:06;102619.94;;;21.31;63.94
34145;BME280;20422;53.014;8.886;2022-08-06T13:54:34;102611.53;;;21.23;64.63
34145;BME280;20422;53.014;8.886;2022-08-06T13:56:59;102616.38;;;21.08;64.80